Time;durP1;ratioP1;P1;durP2;ratioP2;P2;SDS_P1;SDS_P2;PMS_P1;PMS_P2;Temp;Humidity;BMP_temperature;BMP_pressure;BME280_temperature;BME280_humidity;BME280_pressure;Samples;Min_cycle;Max_cycle;Signal;HPM_P1;HPM_P2
2023/05/27 00:01:33;;;;;;;2.57;1.30;;;;;13.90;96709.00;;;;5015279;28;20255;-57
2023/05/27 00:04:01;;;;;;;1.37;1.27;;;;;13.90;96720.00;;;;5015242;28;20196;-56
2023/05/27 00:06:29;;;;;;;2.77;1.93;;;;;14.00;96713.00;;;;5015386;28;20232;-56
2023/05/27 00:08:57;;;;;;;0.83;0.83;;;;;14.00;96709.00;;;;5015040;28;20197;-55
2023/05/27 00:11:25;;;;;;;1.40;1.30;;;;;13.90;96713.00;;;;5014984;28;20593;-56
2023/05/27 00:13:52;;;;;;;1.33;1.33;;;;;13.80;96717.00;;;;5015180;28;20280;-55
2023/05/27 00:16:20;;;;;;;1.27;1.23;;;;;13.50;96709.00;;;;5015045;28;20213;-56
2023/05/27 00:18:48;;;;;;;0.90;0.90;;;;;13.50;96721.00;;;;5014777;28;20198;-56
2023/05/27 00:21:16;;;;;;;1.60;1.50;;;;;13.40;96708.00;;;;5014961;28;20189;-55
2023/05/27 00:23:47;;;;;;;1.00;1.00;;;;;13.40;96716.00;;;;5014778;28;20198;-55
2023/05/27 00:26:15;;;;;;;1.13;1.13;;;;;13.40;96719.00;;;;5013581;28;20228;-55
2023/05/27 00:28:42;;;;;;;3.03;1.83;;;;;13.50;96717.00;;;;5014606;28;20221;-55
2023/05/27 00:31:10;;;;;;;3.63;1.23;;;;;13.60;96715.00;;;;5014349;28;20193;-55
2023/05/27 00:33:37;;;;;;;1.17;1.17;;;;;13.60;96727.00;;;;5015849;28;20652;-56
2023/05/27 00:36:05;;;;;;;1.70;1.60;;;;;13.50;96720.00;;;;5015410;28;20208;-56
2023/05/27 00:38:33;;;;;;;1.73;1.63;;;;;13.50;96719.00;;;;5014262;28;20233;-55
2023/05/27 00:41:03;;;;;;;1.93;1.77;;;;;13.30;96715.00;;;;5015395;28;20243;-55
2023/05/27 00:43:32;;;;;;;1.37;1.37;;;;;13.20;96721.00;;;;5015687;28;20189;-55
2023/05/27 00:45:59;;;;;;;4.27;2.27;;;;;13.10;96713.00;;;;5015208;28;20244;-55
2023/05/27 00:48:27;;;;;;;1.07;1.07;;;;;13.10;96714.00;;;;5014069;28;20583;-55
2023/05/27 00:50:55;;;;;;;1.33;1.23;;;;;13.10;96704.00;;;;5015530;28;20270;-55
2023/05/27 00:53:22;;;;;;;0.73;0.73;;;;;13.20;96712.00;;;;5015212;28;20653;-55
2023/05/27 00:55:51;;;;;;;1.47;1.40;;;;;13.20;96715.00;;;;5015101;28;20268;-55
2023/05/27 00:58:21;;;;;;;1.50;1.40;;;;;13.30;96706.00;;;;5015133;28;20208;-55
2023/05/27 01:00:49;;;;;;;2.33;2.13;;;;;13.10;96713.00;;;;5015333;28;20568;-55
2023/05/27 01:03:17;;;;;;;1.20;1.20;;;;;13.10;96707.00;;;;5013790;28;20197;-55
2023/05/27 01:05:44;;;;;;;0.90;0.90;;;;;13.10;96706.00;;;;5014780;28;20299;-55
2023/05/27 01:08:21;;;;;;;1.30;1.20;;;;;13.10;96706.00;;;;5014956;28;20244;-55
2023/05/27 01:10:52;;;;;;;5.90;1.13;;;;;13.10;96706.00;;;;5015427;28;20182;-55
2023/05/27 01:13:33;;;;;;;1.93;1.53;;;;;13.00;96698.00;;;;5015386;28;20625;-55
2023/05/27 01:16:02;;;;;;;1.20;1.20;;;;;13.00;96702.00;;;;5014986;28;20276;-56
2023/05/27 01:18:33;;;;;;;1.10;1.10;;;;;13.00;96701.00;;;;5015274;28;20197;-55
2023/05/27 01:21:07;;;;;;;1.33;1.33;;;;;12.90;96701.00;;;;5015306;28;20190;-55
2023/05/27 01:23:38;;;;;;;1.13;1.10;;;;;12.90;96701.00;;;;5015037;28;20706;-55
2023/05/27 01:26:06;;;;;;;7.93;1.73;;;;;12.90;96702.00;;;;5014695;28;20225;-55
2023/05/27 01:28:33;;;;;;;2.67;1.37;;;;;12.80;96687.00;;;;5014573;28;20194;-55
2023/05/27 01:31:10;;;;;;;1.30;1.20;;;13.70;53.70;12.90;96692.00;;;;5014894;28;20197;-56
2023/05/27 01:33:41;;;;;;;1.13;1.13;;;13.60;54.40;12.70;96682.00;;;;5014560;28;20182;-56
2023/05/27 01:36:14;;;;;;;0.80;0.80;;;13.50;54.40;12.90;96694.00;;;;5014331;28;20696;-56
2023/05/27 01:38:48;;;;;;;1.30;1.07;;;13.50;54.60;12.70;96689.00;;;;5014431;28;20181;-56
2023/05/27 01:41:16;;;;;;;0.93;0.93;;;13.30;54.60;12.60;96678.00;;;;5014706;28;20512;-56
2023/05/27 01:43:45;;;;;;;1.10;1.00;;;13.30;55.50;12.70;96676.00;;;;5014327;28;20192;-56
2023/05/27 01:46:12;;;;;;;2.33;1.57;;;13.30;55.30;12.70;96674.00;;;;5014093;28;20224;-56
2023/05/27 01:48:39;;;;;;;1.40;1.30;;;13.40;55.30;12.70;96672.00;;;;5014275;28;20200;-55
2023/05/27 01:51:06;;;;;;;0.90;0.90;;;13.40;55.00;12.70;96666.00;;;;5014456;28;20189;-56
2023/05/27 01:53:33;;;;;;;1.60;1.47;;;13.40;55.20;12.70;96662.00;;;;5014640;28;20194;-56
2023/05/27 01:56:02;;;;;;;1.20;1.10;;;13.30;55.20;12.60;96670.00;;;;5013994;28;20213;-56
2023/05/27 01:58:29;;;;;;;1.20;1.10;;;13.40;54.80;12.50;96668.00;;;;5014051;28;20192;-56
2023/05/27 02:00:56;;;;;;;1.50;1.40;;;13.30;54.40;12.60;96664.00;;;;5014230;28;20550;-56
2023/05/27 02:03:23;;;;;;;1.67;1.57;;;13.30;53.40;12.50;96659.00;;;;5013972;28;20190;-56
2023/05/27 02:05:50;;;;;;;1.70;1.60;;;13.20;54.10;12.50;96670.00;;;;5013960;28;20217;-56
2023/05/27 02:08:17;;;;;;;1.10;1.10;;;13.20;54.40;12.50;96659.00;;;;5013953;28;20209;-56
2023/05/27 02:10:44;;;;;;;1.37;1.37;;;13.20;54.10;12.50;96657.00;;;;5012593;28;20679;-56
2023/05/27 02:13:13;;;;;;;1.07;1.07;;;13.20;53.60;12.50;96669.00;;;;5013814;28;20197;-53
2023/05/27 02:15:40;;;;;;;6.53;2.17;;;13.20;53.90;12.40;96661.00;;;;5012980;28;20224;-56
2023/05/27 02:18:07;;;;;;;0.93;0.93;;;13.20;53.60;12.40;96650.00;;;;5013793;28;20688;-55
2023/05/27 02:20:34;;;;;;;3.00;1.43;;;13.20;54.10;12.30;96646.00;;;;5014010;28;20280;-55
2023/05/27 02:23:07;;;;;;;6.20;4.43;;;13.10;54.30;12.30;96647.00;;;;5013987;28;20194;-55
2023/05/27 02:25:34;;;;;;;1.20;1.17;;;13.00;54.00;12.20;96658.00;;;;5013571;28;20209;-55
2023/05/27 02:28:02;;;;;;;2.23;1.97;;;13.00;54.60;12.10;96651.00;;;;5013621;28;20687;-56
2023/05/27 02:30:31;;;;;;;1.63;1.63;;;12.90;55.30;12.20;96651.00;;;;5013952;28;20225;-55
2023/05/27 02:32:59;;;;;;;1.60;1.50;;;12.80;55.00;12.30;96646.00;;;;5013864;28;20190;-55
2023/05/27 02:35:26;;;;;;;1.20;1.10;;;;;12.10;96645.00;;;;5013655;28;20221;-56
2023/05/27 02:37:53;;;;;;;3.10;1.40;;;;;12.10;96639.00;;;;5014477;28;20189;-55
2023/05/27 02:40:27;;;;;;;0.67;0.67;;;12.70;54.50;11.90;96637.00;;;;5014561;28;20201;-56
2023/05/27 02:42:56;;;;;;;0.83;0.83;;;;;11.90;96643.00;;;;5013499;28;20185;-55
2023/05/27 02:45:23;;;;;;;1.00;1.00;;;12.60;55.10;11.90;96646.00;;;;5013415;28;20288;-55
2023/05/27 02:47:52;;;;;;;1.33;1.27;;;12.60;55.70;11.70;96642.00;;;;5013378;28;20276;-55
2023/05/27 02:50:19;;;;;;;3.40;2.10;;;12.40;55.90;11.80;96648.00;;;;5017195;28;20213;-55
2023/05/27 02:52:46;;;;;;;6.40;1.83;;;12.50;56.70;11.80;96645.00;;;;5017750;28;20197;-55
2023/05/27 02:55:13;;;;;;;0.70;0.70;;;12.40;57.20;12.00;96650.00;;;;5016110;28;20221;-56
2023/05/27 02:57:40;;;;;;;0.97;0.97;;;12.60;56.40;12.00;96647.00;;;;5017381;28;20197;-55
2023/05/27 03:00:09;;;;;;;1.20;1.13;;;12.60;55.70;11.80;96644.00;;;;5017614;28;20201;-55
2023/05/27 03:02:36;;;;;;;1.27;1.17;;;12.50;55.40;11.60;96638.00;;;;5016059;28;20214;-56
2023/05/27 03:05:06;;;;;;;0.83;0.83;;;12.40;55.80;11.60;96643.00;;;;5017307;28;20252;-57
2023/05/27 03:07:33;;;;;;;1.27;1.27;;;12.30;55.40;11.50;96648.00;;;;5017472;28;20600;-56
2023/05/27 03:10:00;;;;;;;1.30;1.20;;;12.30;56.30;11.50;96642.00;;;;5017074;28;20193;-56
2023/05/27 03:12:27;;;;;;;1.37;1.33;;;12.10;55.30;11.50;96640.00;;;;5017062;28;20221;-56
2023/05/27 03:14:54;;;;;;;0.90;0.90;;;12.10;56.20;11.20;96639.00;;;;5017130;28;20221;-56
2023/05/27 03:17:21;;;;;;;2.13;2.00;;;12.00;56.00;11.30;96635.00;;;;5016930;28;20204;-56
2023/05/27 03:19:49;;;;;;;1.07;1.07;;;12.00;55.60;11.20;96642.00;;;;5016923;28;20182;-56
2023/05/27 03:22:18;;;;;;;1.63;1.53;;;11.90;56.10;11.20;96641.00;;;;5017093;28;20224;-56
2023/05/27 03:24:46;;;;;;;1.93;1.83;;;11.90;56.50;11.40;96641.00;;;;5016906;28;20208;-56
2023/05/27 03:27:13;;;;;;;0.90;0.90;;;12.00;56.70;11.50;96645.00;;;;5017279;28;20217;-56
2023/05/27 03:29:41;;;;;;;1.60;1.50;;;12.10;56.10;11.40;96643.00;;;;5017279;28;20213;-56
2023/05/27 03:32:08;;;;;;;0.97;0.97;;;12.10;56.10;11.40;96638.00;;;;5016954;28;20189;-56
2023/05/27 03:34:36;;;;;;;0.70;0.70;;;12.20;56.10;11.40;96641.00;;;;5016732;28;20208;-56
2023/05/27 03:37:03;;;;;;;1.03;1.03;;;12.10;56.30;11.30;96643.00;;;;5016630;28;20190;-56
2023/05/27 03:39:31;;;;;;;0.80;0.80;;;12.00;56.20;11.30;96645.00;;;;5016576;28;20197;-56
2023/05/27 03:41:59;;;;;;;1.43;1.40;;;12.00;56.20;11.30;96638.00;;;;5016542;28;20201;-56
2023/05/27 03:44:26;;;;;;;1.60;1.37;;;12.00;56.20;11.40;96637.00;;;;5016807;28;20194;-56
2023/05/27 03:46:53;;;;;;;1.70;1.60;;;12.00;56.10;11.40;96643.00;;;;5016508;28;20579;-56
2023/05/27 03:49:20;;;;;;;1.23;1.23;;;12.00;56.00;11.40;96637.00;;;;5016386;28;20194;-56
2023/05/27 03:51:47;;;;;;;1.90;1.70;;;12.10;55.90;11.40;96649.00;;;;5016338;28;20186;-56
2023/05/27 03:54:14;;;;;;;1.30;1.30;;;12.10;55.60;11.40;96644.00;;;;5016392;28;20190;-56
2023/05/27 03:56:43;;;;;;;1.27;1.20;;;12.00;63.80;11.50;96643.00;;;;5016191;28;20213;-56
2023/05/27 03:59:11;;;;;;;0.80;0.80;;;12.10;62.20;11.40;96650.00;;;;5016053;28;20664;-56
2023/05/27 04:01:39;;;;;;;1.30;0.87;;;12.10;60.70;11.40;96645.00;;;;5014886;28;20668;-56
2023/05/27 04:04:06;;;;;;;1.00;1.00;;;12.10;55.90;11.40;96653.00;;;;5016582;28;20679;-59
2023/05/27 04:06:33;;;;;;;0.93;0.93;;;12.00;56.00;11.50;96648.00;;;;5015779;28;20229;-59
2023/05/27 04:09:00;;;;;;;1.10;1.10;;;12.10;55.50;11.40;96646.00;;;;5016007;28;20197;-54
2023/05/27 04:11:28;;;;;;;2.23;1.37;;;12.20;55.20;11.40;96639.00;;;;5016062;28;20198;-54
2023/05/27 04:13:56;;;;;;;2.70;1.57;;;12.00;55.40;11.30;96631.00;;;;5016207;28;20197;-56
2023/05/27 04:16:25;;;;;;;1.23;1.23;;;12.00;55.90;11.30;96638.00;;;;5015799;28;20243;-54
2023/05/27 04:18:53;;;;;;;0.93;0.93;;;12.00;56.10;11.40;96634.00;;;;5015892;28;20683;-55
2023/05/27 04:21:20;;;;;;;2.30;1.43;;;12.00;55.90;11.50;96636.00;;;;5016293;28;20193;-55
2023/05/27 04:23:48;;;;;;;5.30;1.63;;;12.10;55.80;11.50;96619.00;;;;5016075;28;20247;-55
2023/05/27 04:26:15;;;;;;;0.80;0.80;;;12.10;55.70;11.50;96629.00;;;;5015790;28;20685;-55
2023/05/27 04:28:45;;;;;;;0.97;0.97;;;12.20;55.70;11.60;96637.00;;;;5015920;28;20192;-55
2023/05/27 04:31:15;;;;;;;0.80;0.80;;;12.30;55.50;11.50;96631.00;;;;5015545;28;20197;-56
2023/05/27 04:33:42;;;;;;;1.07;1.07;;;12.20;55.20;11.40;96638.00;;;;5015761;28;20182;-56
2023/05/27 04:36:10;;;;;;;7.23;1.63;;;12.10;55.10;11.20;96638.00;;;;5015303;28;20209;-55
2023/05/27 04:38:37;;;;;;;0.80;0.80;;;12.00;55.30;11.40;96631.00;;;;5015932;28;20201;-55
2023/05/27 04:41:05;;;;;;;2.20;1.10;;;12.10;55.50;11.30;96628.00;;;;5015334;28;20186;-55
2023/05/27 04:43:33;;;;;;;1.57;1.47;;;12.10;55.40;11.30;96632.00;;;;5015626;28;20194;-55
2023/05/27 04:46:00;;;;;;;0.70;0.70;;;12.00;55.10;11.40;96642.00;;;;5015168;28;20217;-56
2023/05/27 04:48:28;;;;;;;0.90;0.90;;;12.00;55.50;11.50;96633.00;;;;5015248;28;20221;-55
2023/05/27 04:50:56;;;;;;;1.17;1.17;;;12.10;55.50;11.60;96634.00;;;;5015211;28;20187;-56
2023/05/27 04:53:24;;;;;;;1.10;1.10;;;12.10;55.60;11.50;96636.00;;;;5015351;28;20220;-55
2023/05/27 04:55:52;;;;;;;0.87;0.87;;;12.10;56.00;11.70;96621.00;;;;5015130;28;20256;-56
2023/05/27 04:58:19;;;;;;;1.10;1.00;;;12.20;55.80;11.60;96630.00;;;;5015612;28;20186;-55
2023/05/27 05:00:53;;;;;;;0.83;0.83;;;12.30;55.50;11.70;96630.00;;;;5015361;28;20213;-55
2023/05/27 05:03:21;;;;;;;1.10;1.10;;;12.30;55.80;11.70;96632.00;;;;5013751;28;20771;-55
2023/05/27 05:05:53;;;;;;;3.17;1.40;;;12.30;56.00;11.60;96640.00;;;;5014705;28;20217;-55
2023/05/27 05:08:21;;;;;;;0.90;0.90;;;12.20;56.20;11.50;96633.00;;;;5015067;28;20556;-58
2023/05/27 05:10:49;;;;;;;1.30;1.30;;;12.20;56.50;11.50;96636.00;;;;5014830;28;20186;-55
2023/05/27 05:13:16;;;;;;;1.10;1.10;;;12.20;57.30;11.50;96632.00;;;;5014497;28;20193;-56
2023/05/27 05:15:44;;;;;;;0.80;0.80;;;12.20;55.80;11.70;96632.00;;;;5014923;28;20267;-55
2023/05/27 05:18:12;;;;;;;1.70;1.60;;;;;11.60;96637.00;;;;5014569;28;20209;-55
2023/05/27 05:20:39;;;;;;;6.90;1.53;;;;;11.40;96643.00;;;;5014707;28;20200;-56
2023/05/27 05:23:09;;;;;;;1.30;1.30;;;;;11.70;96637.00;;;;5014695;28;20193;-55
2023/05/27 05:25:37;;;;;;;2.23;1.57;;;;;11.70;96635.00;;;;5014510;28;20297;-55
2023/05/27 05:28:05;;;;;;;1.47;1.37;;;;;11.80;96641.00;;;;5014709;28;20248;-55
2023/05/27 05:30:33;;;;;;;0.90;0.90;;;;;11.80;96640.00;;;;5014447;28;20201;-55
2023/05/27 05:33:00;;;;;;;1.37;1.27;;;;;12.00;96644.00;;;;5013133;28;20727;-56
2023/05/27 05:35:28;;;;;;;3.50;1.83;;;;;12.00;96643.00;;;;5014715;28;20217;-56
2023/05/27 05:37:55;;;;;;;0.80;0.80;;;;;12.00;96648.00;;;;5014482;28;20240;-55
2023/05/27 05:40:24;;;;;;;0.97;0.97;;;;;12.20;96649.00;;;;5015071;28;20193;-55
2023/05/27 05:42:52;;;;;;;1.10;0.97;;;;;12.20;96656.00;;;;5012841;28;20209;-55
2023/05/27 05:45:19;;;;;;;0.70;0.70;;;;;12.20;96656.00;;;;5014395;28;20213;-55
2023/05/27 05:47:47;;;;;;;1.10;1.03;;;;;12.20;96655.00;;;;5015026;28;20237;-55
2023/05/27 05:50:14;;;;;;;1.43;1.33;;;;;12.50;96647.00;;;;5014894;28;20189;-55
2023/05/27 05:52:42;;;;;;;1.93;1.83;;;;;12.50;96636.00;;;;5014803;28;20201;-55
2023/05/27 05:55:09;;;;;;;1.20;1.20;;;;;12.30;96638.00;;;;5013908;28;20220;-55
2023/05/27 05:57:38;;;;;;;2.07;1.87;;;;;12.60;96636.00;;;;5013937;28;20196;-55
2023/05/27 06:00:09;;;;;;;1.00;1.00;;;;;12.60;96640.00;;;;5014635;28;20201;-55
2023/05/27 06:02:36;;;;;;;0.97;0.90;;;;;12.70;96639.00;;;;5014130;28;20205;-55
2023/05/27 06:05:04;;;;;;;1.67;1.50;;;;;12.80;96640.00;;;;5013742;28;20233;-55
2023/05/27 06:07:31;;;;;;;0.90;0.90;;;;;12.90;96637.00;;;;5014058;28;20209;-55
2023/05/27 06:09:59;;;;;;;0.87;0.87;;;;;12.80;96636.00;;;;5013828;28;20256;-55
2023/05/27 06:12:26;;;;;;;2.10;1.93;;;;;12.80;96629.00;;;;5014008;28;20664;-59
2023/05/27 06:14:55;;;;;;;0.97;0.97;;;;;12.90;96635.00;;;;5013645;28;20216;-56
2023/05/27 06:17:22;;;;;;;0.80;0.80;;;;;12.70;96630.00;;;;5013636;28;20196;-55
2023/05/27 06:19:50;;;;;;;0.90;0.90;;;;;12.70;96634.00;;;;5013689;28;20220;-55
2023/05/27 06:22:17;;;;;;;1.00;1.00;;;;;12.90;96628.00;;;;5013583;28;20197;-55
2023/05/27 06:24:45;;;;;;;1.53;1.53;;;;;13.10;96632.00;;;;5013037;28;20299;-55
2023/05/27 06:27:13;;;;;;;1.60;1.50;;;;;13.30;96636.00;;;;5013765;28;20263;-55
2023/05/27 06:29:40;;;;;;;0.50;0.50;;;;;13.40;96630.00;;;;5013498;28;20197;-55
2023/05/27 06:32:09;;;;;;;1.50;1.20;;;;;13.30;96630.00;;;;5013438;28;20205;-55
2023/05/27 06:34:37;;;;;;;1.37;1.27;;;;;13.10;96628.00;;;;5013860;28;20197;-55
2023/05/27 06:37:04;;;;;;;0.90;0.90;;;;;13.40;96633.00;;;;5013524;28;20194;-55
2023/05/27 06:39:32;;;;;;;0.60;0.60;;;;;13.50;96627.00;;;;5013995;28;20201;-55
2023/05/27 06:41:59;;;;;;;1.33;1.30;;;;;13.80;96618.00;;;;5013488;28;20193;-55
2023/05/27 06:44:27;;;;;;;0.80;0.80;;;;;14.00;96626.00;;;;5013551;28;20558;-55
2023/05/27 06:46:54;;;;;;;0.70;0.70;;;;;14.30;96621.00;;;;5013189;28;20263;-55
2023/05/27 06:49:23;;;;;;;1.07;1.07;;;;;14.40;96624.00;;;;5012147;28;20767;-55
2023/05/27 06:51:50;;;;;;;0.93;0.93;;;;;14.70;96613.00;;;;5013246;28;20193;-55
2023/05/27 06:54:18;;;;;;;0.80;0.80;;;;;14.90;96616.00;;;;5013262;28;20205;-55
2023/05/27 06:56:45;;;;;;;1.07;1.07;;;;;15.00;96607.00;;;;5013194;28;20225;-55
2023/05/27 06:59:13;;;;;;;1.07;1.07;;;;;15.30;96612.00;;;;5013250;28;20656;-55
2023/05/27 07:01:40;;;;;;;0.80;0.80;;;;;15.20;96614.00;;;;5011953;28;20206;-55
2023/05/27 07:04:08;;;;;;;3.53;1.03;;;;;15.20;96606.00;;;;5013126;28;20267;-55
2023/05/27 07:06:37;;;;;;;1.50;1.40;;;;;15.30;96612.00;;;;5007571;22;20245;-59
2023/05/27 07:09:05;;;;;;;1.53;1.30;;;;;15.40;96614.00;;;;4972944;28;20222;-58
2023/05/27 07:11:33;;;;;;;1.20;1.20;;;;;15.60;96615.00;;;;4974285;28;20250;-58
2023/05/27 07:14:00;;;;;;;1.00;1.00;;;;;15.90;96619.00;;;;4973141;28;20253;-59
2023/05/27 07:16:28;;;;;;;0.70;0.70;;;;;16.10;96631.00;;;;4974551;28;20219;-59
2023/05/27 07:18:55;;;;;;;3.00;1.57;;;;;16.10;96618.00;;;;4974564;28;20250;-57
2023/05/27 07:21:22;;;;;;;1.67;1.00;;;;;16.00;96630.00;;;;4974314;28;20207;-58
2023/05/27 07:23:51;;;;;;;1.03;1.03;;;;;16.30;96621.00;;;;4974229;28;20199;-58
2023/05/27 07:26:19;;;;;;;1.40;1.37;;;;;16.30;96622.00;;;;4974605;28;20548;-58
2023/05/27 07:28:47;;;;;;;1.00;1.00;;;;;16.40;96627.00;;;;4973941;28;20226;-58
2023/05/27 07:31:15;;;;;;;5.43;0.90;;;;;16.60;96624.00;;;;4974653;28;20694;-58
2023/05/27 07:33:42;;;;;;;1.10;1.10;;;;;16.80;96623.00;;;;4974265;28;20242;-58
2023/05/27 07:36:10;;;;;;;1.13;1.13;;;;;17.00;96629.00;;;;4977058;28;20701;-59
2023/05/27 07:38:37;;;;;;;1.00;1.00;;;;;17.00;96621.00;;;;4977603;28;20602;-57
2023/05/27 07:41:06;;;;;;;0.90;0.90;;;;;16.90;96619.00;;;;4978068;28;20207;-58
2023/05/27 07:43:33;;;;;;;1.27;1.27;;;;;16.80;96617.00;;;;4978064;28;20206;-58
2023/05/27 07:46:01;;;;;;;1.37;1.33;;;;;16.60;96613.00;;;;4977904;28;20238;-57
2023/05/27 07:48:29;;;;;;;2.73;1.63;;;;;16.80;96609.00;;;;4977295;28;20258;-57
2023/05/27 07:50:56;;;;;;;2.60;1.30;;;;;16.90;96612.00;;;;4977747;28;20606;-58
2023/05/27 07:53:24;;;;;;;1.53;1.43;;;;;17.10;96606.00;;;;4977412;28;20195;-59
2023/05/27 07:55:51;;;;;;;1.27;1.17;;;;;17.30;96616.00;;;;4976504;28;20603;-57
2023/05/27 07:58:20;;;;;;;0.70;0.70;;;;;17.20;96609.00;;;;4977310;28;20198;-58
2023/05/27 08:00:50;;;;;;;1.43;1.33;;;;;17.20;96603.00;;;;4977263;28;20191;-57
2023/05/27 08:03:18;;;;;;;1.87;1.17;;;;;17.50;96614.00;;;;4977187;28;20209;-57
2023/05/27 08:05:45;;;;;;;0.80;0.80;;;;;17.60;96608.00;;;;4976801;28;20226;-58
2023/05/27 08:08:13;;;;;;;1.53;0.90;;;;;17.40;96600.00;;;;4975776;28;20716;-57
2023/05/27 08:10:40;;;;;;;1.13;1.03;;;;;17.60;96598.00;;;;4977257;28;20562;-57
2023/05/27 08:13:07;;;;;;;1.67;1.57;;;;;17.70;96607.00;;;;4976868;28;20254;-58
2023/05/27 08:15:36;;;;;;;0.80;0.80;;;;;17.70;96602.00;;;;4977142;28;20225;-57
2023/05/27 08:18:04;;;;;;;5.07;2.43;;;;;17.50;96600.00;;;;4976875;28;20195;-57
2023/05/27 08:20:31;;;;;;;1.33;1.23;;;;;17.70;96593.00;;;;4976803;28;20191;-56
2023/05/27 08:22:58;;;;;;;1.73;1.63;;;;;17.90;96593.00;;;;4976759;28;20202;-58
2023/05/27 08:25:26;;;;;;;0.77;0.77;;;;;17.80;96594.00;;;;4976881;28;20199;-58
2023/05/27 08:27:57;;;;;;;1.77;1.53;;;;;17.80;96596.00;;;;4976577;28;20214;-56
2023/05/27 08:30:24;;;;;;;1.07;1.07;;;;;17.90;96589.00;;;;4977010;28;20191;-56
2023/05/27 08:32:53;;;;;;;3.17;1.80;;;;;18.10;96595.00;;;;4976603;28;20662;-57
2023/05/27 08:35:20;;;;;;;1.40;1.30;;;;;18.20;96585.00;;;;4976498;28;20198;-58
2023/05/27 08:37:48;;;;;;;3.27;1.60;;;;;18.40;96593.00;;;;4976445;28;20202;-58
2023/05/27 08:40:17;;;;;;;1.50;1.40;;;;;18.40;96582.00;;;;4975478;28;20205;-58
2023/05/27 08:42:45;;;;;;;1.87;1.77;;;;;17.70;96580.00;;;;4976468;28;20198;-58
2023/05/27 08:45:13;;;;;;;1.47;1.37;;;;;18.10;96576.00;;;;4975167;28;20237;-57
2023/05/27 08:47:41;;;;;;;1.57;1.47;;;;;18.40;96570.00;;;;4975319;28;20278;-58
2023/05/27 08:50:11;;;;;;;1.17;1.17;;;;;18.50;96573.00;;;;4976591;28;20205;-57
2023/05/27 08:52:46;;;;;;;0.87;0.87;;;;;18.60;96581.00;;;;4976841;28;20282;-60
2023/05/27 08:55:18;;;;;;;1.50;1.40;;;;;18.60;96579.00;;;;4976552;28;20265;-59
2023/05/27 08:57:51;;;;;;;0.90;0.90;;;;;18.90;96573.00;;;;4976384;28;20528;-57
2023/05/27 09:00:19;;;;;;;0.80;0.80;;;;;19.00;96577.00;;;;4976463;28;20187;-58
2023/05/27 09:02:46;;;;;;;1.33;1.23;;;;;19.10;96573.00;;;;4976586;28;20191;-59
2023/05/27 09:05:17;;;;;;;1.20;1.00;;;;;19.20;96580.00;;;;4976124;28;20194;-59
2023/05/27 09:07:45;;;;;;;1.70;1.57;;;;;19.20;96580.00;;;;4975876;28;20202;-58
2023/05/27 09:10:12;;;;;;;1.10;1.10;;;;;19.30;96575.00;;;;4975946;28;20198;-58
2023/05/27 09:12:43;;;;;;;2.20;1.83;;;;;19.30;96573.00;;;;4975942;28;20199;-59
2023/05/27 09:15:11;;;;;;;15.83;1.47;;;;;19.60;96573.00;;;;4976168;28;20656;-59
2023/05/27 09:17:42;;;;;;;1.47;1.37;;;;;19.80;96570.00;;;;4975721;28;20215;-59
2023/05/27 09:20:10;;;;;;;3.20;1.30;;;;;19.90;96566.00;;;;4974735;28;20615;-59
2023/05/27 09:22:40;;;;;;;1.77;1.30;;;;;19.80;96568.00;;;;4975684;28;20191;-58
2023/05/27 09:25:08;;;;;;;1.20;1.20;;;;;19.70;96558.00;;;;4975750;28;20233;-59
2023/05/27 09:27:36;;;;;;;1.77;1.67;;;;;19.90;96560.00;;;;4975550;28;20709;-59
2023/05/27 09:30:11;;;;;;;4.33;2.23;;;;;20.10;96555.00;;;;4975518;28;20244;-59
2023/05/27 09:32:38;;;;;;;1.30;1.20;;;;;20.10;96560.00;;;;4975483;28;20194;-59
2023/05/27 09:35:08;;;;;;;0.90;0.87;;;;;20.10;96553.00;;;;4975576;28;20221;-58
2023/05/27 09:37:36;;;;;;;5.93;1.93;;;;;19.90;96560.00;;;;4975560;28;20690;-58
2023/05/27 09:40:09;;;;;;;1.10;1.10;;;;;20.00;96554.00;;;;4975558;28;20187;-58
2023/05/27 09:42:44;;;;;;;8.10;2.83;;;;;20.00;96549.00;;;;4975491;28;20215;-58
2023/05/27 09:45:14;;;;;;;1.37;1.27;;;;;19.80;96552.00;;;;4975397;28;20661;-58
2023/05/27 09:47:48;;;;;;;1.67;1.58;;;;;20.00;96553.00;;;;4975412;28;20289;-58
2023/05/27 09:50:16;;;;;;;1.77;1.67;;;;;20.30;96553.00;;;;4975125;28;20266;-59
2023/05/27 09:52:45;;;;;;;4.40;1.93;;;;;20.20;96554.00;;;;4974908;28;20194;-59
2023/05/27 09:55:14;;;;;;;3.70;1.65;;;;;20.30;96547.00;;;;4975127;28;20202;-58
2023/05/27 09:57:42;;;;;;;0.70;0.70;;;;;20.50;96554.00;;;;4975067;28;20665;-59
2023/05/27 10:00:12;;;;;;;1.58;1.40;;;;;20.70;96550.00;;;;4975056;28;20258;-57
2023/05/27 10:02:42;;;;;;;1.10;1.10;;;;;20.80;96558.00;;;;4975300;28;20191;-58
2023/05/27 10:05:12;;;;;;;3.90;1.73;;;;;21.00;96551.00;;;;4974913;28;20281;-59
2023/05/27 10:07:41;;;;;;;3.25;1.75;;;;;20.60;96542.00;;;;4975108;28;20257;-58
2023/05/27 10:10:11;;;;;;;2.13;1.50;;;;;20.90;96542.00;;;;4973530;28;20218;-58
2023/05/27 10:12:40;;;;;;;1.20;1.20;;;;;21.20;96537.00;;;;4974750;28;20245;-57
2023/05/27 10:15:09;;;;;;;2.63;1.88;;;;;21.10;96540.00;;;;4974766;28;20666;-58
2023/05/27 10:17:43;;;;;;;1.65;1.55;;;;;21.00;96540.00;;;;4974514;28;20211;-59
2023/05/27 10:20:11;;;;;;;1.50;1.30;;;;;20.80;96527.00;;;;4975177;28;20215;-58
2023/05/27 10:22:45;;;;;;;2.85;1.42;;;;;21.20;96528.00;;;;4974760;28;20198;-59
2023/05/27 10:25:16;;;;;;;1.13;1.13;;;;;21.50;96536.00;;;;4975471;28;20542;-59
2023/05/27 10:27:46;;;;;;;1.60;1.50;;;;;21.60;96541.00;;;;4974932;28;20654;-59
2023/05/27 10:30:15;;;;;;;1.05;1.05;;;;;21.60;96526.00;;;;4975343;28;20701;-59
2023/05/27 10:32:49;;;;;;;1.20;1.20;;;22.00;31.50;21.70;96526.00;;;;4974612;28;20194;-57
2023/05/27 10:35:17;;;;;;;1.70;1.60;;;22.00;34.40;21.90;96523.00;;;;4974760;28;20189;-59
2023/05/27 10:37:46;;;;;;;1.00;1.00;;;22.20;31.90;22.20;96515.00;;;;4989535;28;20250;-59
2023/05/27 10:40:24;;;;;;;9.18;1.25;;;;;22.20;96513.00;;;;4974489;28;20565;-58
2023/05/27 10:43:02;;;;;;;1.52;1.42;;;22.50;30.70;22.30;96520.00;;;;4974505;28;20198;-58
2023/05/27 10:45:35;;;;;;;3.13;1.33;;;22.70;33.40;22.40;96510.00;;;;4974712;28;20468;-58
2023/05/27 10:48:02;;;;;;;1.25;1.15;;;22.70;31.90;22.30;96513.00;;;;4974393;28;20194;-58
2023/05/27 10:50:34;;;;;;;2.03;1.90;;;22.70;31.40;21.90;96517.00;;;;4989322;28;20654;-60
2023/05/27 10:53:02;;;;;;;2.42;2.00;;;;;22.10;96513.00;;;;4974643;28;20198;-58
2023/05/27 10:55:31;;;;;;;2.15;1.77;;;22.50;31.00;22.50;96513.00;;;;4974323;28;20222;-58
2023/05/27 10:58:00;;;;;;;1.50;1.40;;;22.70;32.00;22.90;96511.00;;;;4974616;28;20202;-58
2023/05/27 11:00:29;;;;;;;1.95;1.85;;;23.10;31.00;23.00;96507.00;;;;4975073;28;20249;-58
2023/05/27 11:02:57;;;;;;;1.20;1.15;;;;;22.30;96502.00;;;;4974382;28;20557;-58
2023/05/27 11:05:32;;;;;;;0.70;0.70;;;22.90;29.20;22.50;96513.00;;;;4974520;28;20542;-59
2023/05/27 11:08:00;;;;;;;1.45;1.35;;;23.00;31.50;22.30;96505.00;;;;4974369;28;20266;-59
2023/05/27 11:10:27;;;;;;;2.10;1.58;;;22.70;30.30;22.90;96507.00;;;;4976405;28;20218;-59
2023/05/27 11:12:54;;;;;;;1.42;1.33;;;23.10;31.10;23.10;96501.00;;;;4978113;28;20654;-59
2023/05/27 11:15:23;;;;;;;1.27;1.25;;;;;23.00;96508.00;;;;4978270;28;20603;-59
2023/05/27 11:17:50;;;;;;;1.25;1.25;;;23.30;29.30;23.30;96497.00;;;;4978314;28;20201;-59
2023/05/27 11:20:17;;;;;;;1.08;1.08;;;;;23.40;96496.00;;;;4977851;28;20204;-58
2023/05/27 11:22:51;;;;;;;2.17;1.95;;;;;23.20;96491.00;;;;4977941;28;20199;-58
2023/05/27 11:25:18;;;;;;;1.63;1.52;;;23.60;28.40;23.50;96487.00;;;;4978342;28;20249;-59
2023/05/27 11:27:45;;;;;;;1.38;1.27;;;23.80;28.80;23.60;96487.00;;;;4977789;28;20646;-58
2023/05/27 11:30:14;;;;;;;1.08;1.05;;;;;24.10;96483.00;;;;4977971;28;20233;-58
2023/05/27 11:32:43;;;;;;;2.28;2.17;;;24.40;27.00;24.10;96475.00;;;;4977926;28;20202;-59
2023/05/27 11:35:17;;;;;;;1.67;1.58;;;;;24.40;96463.00;;;;4977856;28;20195;-59
2023/05/27 11:37:47;;;;;;;0.90;0.90;;;;;23.90;96462.00;;;;4977826;28;20204;-58
2023/05/27 11:40:15;;;;;;;1.63;1.52;;;;;24.00;96468.00;;;;4977512;28;20194;-57
2023/05/27 11:42:46;;;;;;;2.38;1.75;;;;;24.30;96466.00;;;;4977736;28;20202;-58
2023/05/27 11:45:18;;;;;;;3.25;1.10;;;24.60;26.40;24.50;96457.00;;;;4977804;28;20218;-57
2023/05/27 11:47:50;;;;;;;1.35;1.27;;;24.70;27.70;23.90;96491.00;;;;4977441;28;20195;-58
2023/05/27 11:50:19;;;;;;;1.30;1.25;;;24.30;26.30;24.00;96456.00;;;;4977627;28;20207;-59